Time;durP1;ratioP1;P1;durP2;ratioP2;P2;SDS_P1;SDS_P2;PMS_P1;PMS_P2;Temp;Humidity;BMP_temperature;BMP_pressure;BME280_temperature;BME280_humidity;BME280_pressure;Samples;Min_cycle;Max_cycle;Signal;HPM_P1;HPM_P2
2023/11/26 00:01:35;;;;;;;;;;;5.00;72.30;;;;;;4996243;28;87054;-43
2023/11/26 00:04:01;;;;;;;;;;;5.00;72.20;;;;;;4999747;28;86909;-43
2023/11/26 00:06:26;;;;;;;;;;;5.00;72.40;;;;;;4999693;28;87438;-42
2023/11/26 00:08:52;;;;;;;;;;;5.00;72.30;;;;;;5000470;28;86794;-42
2023/11/26 00:11:17;;;;;;;;;;;5.00;72.40;;;;;;5000185;28;87590;-43
2023/11/26 00:13:43;;;;;;;;;;;5.00;72.30;;;;;;4998479;28;87044;-42
2023/11/26 00:16:09;;;;;;;;;;;5.00;72.30;;;;;;4998256;28;87956;-44
2023/11/26 00:18:37;;;;;;;;;;;4.90;72.50;;;;;;4997848;28;88132;-43
2023/11/26 00:21:03;;;;;;;;;;;4.90;72.60;;;;;;4997122;28;87180;-42
2023/11/26 00:23:28;;;;;;;;;;;4.90;72.50;;;;;;4994990;28;87037;-42
2023/11/26 00:25:54;;;;;;;;;;;4.90;72.30;;;;;;4995457;28;88625;-42
2023/11/26 00:28:19;;;;;;;;;;;4.90;72.30;;;;;;5002082;28;86973;-42
2023/11/26 00:30:45;;;;;;;;;;;4.90;72.30;;;;;;4999505;28;87858;-43
2023/11/26 00:33:11;;;;;;;;;;;4.90;72.50;;;;;;4995207;28;86342;-42
2023/11/26 00:35:37;;;;;;;;;;;4.80;72.40;;;;;;4998425;28;87032;-43
2023/11/26 00:38:02;;;;;;;;;;;4.80;72.50;;;;;;4993741;28;87621;-43
2023/11/26 00:40:28;;;;;;;;;;;4.80;72.50;;;;;;4997982;28;88756;-42
2023/11/26 00:42:53;;;;;;;;;;;4.80;72.50;;;;;;4996527;28;87774;-43
2023/11/26 00:45:19;;;;;;;;;;;4.80;72.50;;;;;;4995603;28;87262;-42
2023/11/26 00:47:45;;;;;;;;;;;4.80;72.40;;;;;;4997344;28;87407;-42
2023/11/26 00:50:11;;;;;;;;;;;4.80;72.50;;;;;;4999563;28;88039;-42
2023/11/26 00:52:37;;;;;;;;;;;4.80;72.50;;;;;;5003804;28;87670;-43
2023/11/26 00:55:02;;;;;;;;;;;4.80;72.40;;;;;;5005024;28;87813;-43
2023/11/26 00:57:28;;;;;;;;;;;4.80;72.30;;;;;;5000777;28;86813;-43
2023/11/26 00:59:53;;;;;;;;;;;4.70;72.40;;;;;;4999028;28;86872;-42
2023/11/26 01:02:21;;;;;;;;;;;4.70;72.50;;;;;;4997052;28;87427;-43
2023/11/26 01:04:47;;;;;;;;;;;4.70;72.40;;;;;;4995432;28;89533;-42
2023/11/26 01:07:13;;;;;;;;;;;4.70;72.60;;;;;;4997385;28;87141;-42
2023/11/26 01:09:38;;;;;;;;;;;4.70;72.60;;;;;;4998202;28;87078;-43
2023/11/26 01:12:04;;;;;;;;;;;4.70;72.50;;;;;;5006990;28;87442;-43
2023/11/26 01:14:30;;;;;;;;;;;4.70;72.50;;;;;;4998424;28;87644;-43
2023/11/26 01:16:56;;;;;;;;;;;4.70;72.70;;;;;;5002000;28;88543;-43
2023/11/26 01:19:22;;;;;;;;;;;4.60;72.50;;;;;;4995089;28;87072;-43
2023/11/26 01:21:47;;;;;;;;;;;4.60;72.60;;;;;;4998764;28;86743;-43
2023/11/26 01:24:13;;;;;;;;;;;4.60;72.60;;;;;;5001065;28;87535;-42
2023/11/26 01:26:39;;;;;;;;;;;4.60;72.60;;;;;;4998280;28;87656;-43
2023/11/26 01:29:04;;;;;;;;;;;4.60;72.60;;;;;;4996092;28;87839;-43
2023/11/26 01:31:30;;;;;;;;;;;4.60;72.50;;;;;;5002755;28;87463;-43
2023/11/26 01:33:56;;;;;;;;;;;4.60;72.70;;;;;;4997210;28;87024;-42
2023/11/26 01:36:21;;;;;;;;;;;4.50;72.70;;;;;;4996896;28;88379;-43
2023/11/26 01:38:47;;;;;;;;;;;4.50;72.80;;;;;;4996954;28;87094;-44
2023/11/26 01:41:13;;;;;;;;;;;4.60;72.80;;;;;;5001741;28;87074;-42
2023/11/26 01:43:38;;;;;;;;;;;4.50;72.80;;;;;;5000776;28;88600;-43
2023/11/26 01:46:09;;;;;;;;;;;4.50;72.70;;;;;;4998329;28;87020;-44
2023/11/26 01:48:36;;;;;;;;;;;4.50;72.70;;;;;;5002613;28;87295;-44
2023/11/26 01:51:02;;;;;;;;;;;4.50;72.90;;;;;;5000938;28;87423;-43
2023/11/26 01:53:29;;;;;;;;;;;4.40;72.80;;;;;;5003765;28;88447;-43
2023/11/26 01:55:55;;;;;;;;;;;4.50;73.00;;;;;;4998393;28;87414;-43
2023/11/26 01:58:21;;;;;;;;;;;4.50;72.90;;;;;;5001216;28;88509;-43
2023/11/26 02:00:47;;;;;;;;;;;4.50;72.80;;;;;;5001963;28;87019;-44
2023/11/26 02:03:12;;;;;;;;;;;4.50;72.80;;;;;;5003783;28;88481;-43
2023/11/26 02:05:38;;;;;;;;;;;4.40;73.00;;;;;;4995733;28;86852;-44
2023/11/26 02:08:04;;;;;;;;;;;4.40;72.80;;;;;;4996467;28;86768;-44
2023/11/26 02:10:30;;;;;;;;;;;4.40;72.90;;;;;;4997603;28;86527;-43
2023/11/26 02:13:03;;;;;;;;;;;4.40;73.00;;;;;;5004486;28;87636;-44
2023/11/26 02:15:29;;;;;;;;;;;4.30;72.90;;;;;;5002276;28;88058;-43
2023/11/26 02:17:54;;;;;;;;;;;4.30;73.10;;;;;;4998033;28;88095;-44
2023/11/26 02:20:22;;;;;;;;;;;4.30;73.20;;;;;;5000191;28;87778;-44
2023/11/26 02:22:48;;;;;;;;;;;4.30;73.00;;;;;;4998861;28;87302;-42
2023/11/26 02:25:14;;;;;;;;;;;4.30;73.10;;;;;;5000247;28;86778;-43
2023/11/26 02:27:39;;;;;;;;;;;4.30;73.20;;;;;;4999116;28;87002;-44
2023/11/26 02:30:06;;;;;;;;;;;4.30;73.20;;;;;;4999392;28;87422;-44
2023/11/26 02:32:32;;;;;;;;;;;4.30;73.10;;;;;;4996091;28;86870;-44
2023/11/26 02:34:58;;;;;;;;;;;4.30;73.10;;;;;;5003369;28;86791;-43
2023/11/26 02:37:23;;;;;;;;;;;4.30;73.10;;;;;;5001852;28;87580;-43
2023/11/26 02:39:49;;;;;;;;;;;4.30;73.10;;;;;;5001617;28;86941;-43
2023/11/26 02:42:14;;;;;;;;;;;4.20;73.10;;;;;;4996705;28;88324;-43
2023/11/26 02:44:40;;;;;;;;;;;4.20;73.00;;;;;;4999525;28;87096;-43
2023/11/26 02:47:07;;;;;;;;;;;4.20;73.10;;;;;;4995836;28;86932;-43
2023/11/26 02:49:33;;;;;;;;;;;4.20;73.20;;;;;;4997299;28;88696;-43
2023/11/26 02:51:59;;;;;;;;;;;4.20;73.30;;;;;;4999333;28;86974;-44
2023/11/26 02:54:24;;;;;;;;;;;4.20;73.20;;;;;;5001101;28;87006;-43
2023/11/26 02:56:50;;;;;;;;;;;4.10;73.30;;;;;;4998414;28;87687;-43
2023/11/26 02:59:16;;;;;;;;;;;4.10;73.40;;;;;;5003903;28;86223;-44
2023/11/26 03:01:42;;;;;;;;;;;4.10;73.20;;;;;;4995254;28;87461;-43
2023/11/26 03:04:08;;;;;;;;;;;4.10;73.30;;;;;;4994541;28;87443;-43
2023/11/26 03:06:35;;;;;;;;;;;4.10;73.20;;;;;;4995933;28;88031;-44
2023/11/26 03:09:09;;;;;;;;;;;4.10;73.30;;;;;;4994921;28;88466;-42
2023/11/26 03:14:19;;;;;;;;;;;4.10;73.20;;;;;;4996134;28;86895;-44
2023/11/26 03:16:45;;;;;;;;;;;4.10;73.10;;;;;;4995013;28;88609;-43
2023/11/26 03:19:15;;;;;;;;;;;4.10;73.20;;;;;;4995426;28;87433;-44
2023/11/26 03:21:44;;;;;;;;;;;4.00;73.20;;;;;;5000657;28;87882;-43
2023/11/26 03:24:14;;;;;;;;;;;4.00;73.30;;;;;;5001140;28;86400;-44
2023/11/26 03:26:39;;;;;;;;;;;4.00;73.30;;;;;;4997951;28;87084;-43
2023/11/26 03:29:05;;;;;;;;;;;4.00;73.20;;;;;;5000262;28;87528;-43
2023/11/26 03:31:31;;;;;;;;;;;4.00;73.20;;;;;;4994310;28;87892;-43
2023/11/26 03:33:57;;;;;;;;;;;4.00;73.30;;;;;;5000502;28;88037;-43
2023/11/26 03:36:23;;;;;;;;;;;4.00;73.20;;;;;;4998116;28;87095;-43
2023/11/26 03:38:48;;;;;;;;;;;4.00;73.20;;;;;;4992908;28;87075;-43
2023/11/26 03:41:14;;;;;;;;;;;4.00;73.30;;;;;;4999767;28;87733;-43
2023/11/26 03:43:40;;;;;;;;;;;4.00;73.10;;;;;;5001371;28;87018;-44
2023/11/26 03:46:06;;;;;;;;;;;3.90;73.20;;;;;;4995946;28;86902;-44
2023/11/26 03:48:32;;;;;;;;;;;3.90;73.30;;;;;;4997797;28;87699;-43
2023/11/26 03:50:58;;;;;;;;;;;3.90;73.40;;;;;;4997328;28;87071;-44
2023/11/26 03:53:23;;;;;;;;;;;3.90;73.30;;;;;;4998211;28;88030;-44
2023/11/26 03:55:49;;;;;;;;;;;3.80;73.50;;;;;;4992895;28;88522;-44
2023/11/26 03:58:16;;;;;;;;;;;3.90;73.50;;;;;;4999931;28;89892;-44
2023/11/26 04:00:41;;;;;;;;;;;3.90;73.30;;;;;;4997885;28;87027;-43
2023/11/26 04:03:07;;;;;;;;;;;3.80;73.50;;;;;;4997820;28;87450;-43
2023/11/26 04:05:33;;;;;;;;;;;3.80;73.60;;;;;;4999125;28;87012;-43
2023/11/26 04:07:58;;;;;;;;;;;3.80;73.70;;;;;;4999028;28;88068;-43
2023/11/26 04:10:24;;;;;;;;;;;3.80;73.60;;;;;;4995408;28;86919;-43
2023/11/26 04:12:50;;;;;;;;;;;3.80;73.70;;;;;;4997952;28;86804;-44
2023/11/26 04:15:19;;;;;;;;;;;3.80;73.70;;;;;;4997532;28;88453;-44
2023/11/26 04:17:44;;;;;;;;;;;3.80;73.70;;;;;;4993896;28;87089;-44
2023/11/26 04:20:11;;;;;;;;;;;3.70;73.80;;;;;;4996336;28;87798;-44
2023/11/26 04:22:37;;;;;;;;;;;3.80;73.80;;;;;;4993233;28;87683;-43
2023/11/26 04:25:03;;;;;;;;;;;3.70;73.70;;;;;;4999108;28;87057;-43
2023/11/26 04:27:29;;;;;;;;;;;3.70;73.80;;;;;;5001957;28;87311;-43
2023/11/26 04:29:54;;;;;;;;;;;3.80;73.80;;;;;;4998850;28;87159;-43
2023/11/26 04:32:20;;;;;;;;;;;3.70;73.60;;;;;;5001812;28;86960;-44
2023/11/26 04:34:45;;;;;;;;;;;3.80;73.80;;;;;;4995263;28;86987;-44
2023/11/26 04:37:17;;;;;;;;;;;3.70;73.50;;;;;;5005069;28;86406;-44
2023/11/26 04:39:43;;;;;;;;;;;3.70;73.50;;;;;;4997870;28;87558;-44
2023/11/26 04:42:09;;;;;;;;;;;3.70;73.70;;;;;;5001082;28;88443;-45
2023/11/26 04:44:34;;;;;;;;;;;3.70;73.70;;;;;;5001078;28;87963;-44
2023/11/26 04:47:00;;;;;;;;;;;3.80;73.50;;;;;;5000468;28;87674;-43
2023/11/26 04:49:26;;;;;;;;;;;3.80;73.40;;;;;;4997192;28;86940;-43
2023/11/26 04:51:51;;;;;;;;;;;3.70;73.40;;;;;;5000925;28;86914;-43
2023/11/26 04:54:17;;;;;;;;;;;3.70;73.40;;;;;;4998140;28;87507;-43
2023/11/26 04:56:43;;;;;;;;;;;3.70;73.60;;;;;;5003166;28;87183;-44
2023/11/26 04:59:08;;;;;;;;;;;3.70;73.70;;;;;;5000019;28;87837;-45
2023/11/26 05:01:35;;;;;;;;;;;3.70;73.60;;;;;;4999773;28;86662;-43
2023/11/26 05:04:01;;;;;;;;;;;3.70;73.40;;;;;;4997487;28;86940;-43
2023/11/26 05:06:27;;;;;;;;;;;3.70;73.40;;;;;;5001105;28;87913;-44
2023/11/26 05:08:52;;;;;;;;;;;3.60;73.50;;;;;;4999587;28;89362;-43
2023/11/26 05:11:18;;;;;;;;;;;3.70;73.40;;;;;;5002181;28;88082;-44
2023/11/26 05:13:45;;;;;;;;;;;3.60;73.40;;;;;;4999146;28;87464;-44
2023/11/26 05:16:11;;;;;;;;;;;3.60;73.60;;;;;;5001112;28;86970;-44
2023/11/26 05:18:36;;;;;;;;;;;3.60;73.50;;;;;;5000714;28;87013;-43
2023/11/26 05:21:02;;;;;;;;;;;3.60;73.30;;;;;;4996963;28;87076;-43
2023/11/26 05:23:28;;;;;;;;;;;3.60;73.50;;;;;;4996660;28;86964;-43
2023/11/26 05:25:53;;;;;;;;;;;3.60;73.40;;;;;;5000623;28;86781;-44
2023/11/26 05:28:19;;;;;;;;;;;3.50;73.60;;;;;;5000000;28;87523;-44
2023/11/26 05:30:44;;;;;;;;;;;3.50;73.50;;;;;;5003155;28;86959;-44
2023/11/26 05:33:10;;;;;;;;;;;3.50;73.40;;;;;;5001817;28;87908;-45
2023/11/26 05:35:36;;;;;;;;;;;3.50;73.50;;;;;;4997099;28;87039;-44
2023/11/26 05:38:03;;;;;;;;;;;3.50;73.50;;;;;;4996324;28;87920;-44
2023/11/26 05:40:29;;;;;;;;;;;3.50;73.50;;;;;;4997762;28;87468;-43
2023/11/26 05:42:56;;;;;;;;;;;3.50;73.40;;;;;;5006316;28;87057;-44
2023/11/26 05:45:21;;;;;;;;;;;3.50;73.40;;;;;;5003094;28;87726;-44
2023/11/26 05:47:47;;;;;;;;;;;3.50;73.50;;;;;;4996495;28;87488;-45
2023/11/26 05:50:12;;;;;;;;;;;3.50;73.40;;;;;;5000593;28;86528;-44
2023/11/26 05:52:38;;;;;;;;;;;3.40;73.50;;;;;;5000183;28;87592;-43
2023/11/26 05:55:06;;;;;;;;;;;3.50;73.40;;;;;;4996708;28;87174;-44
2023/11/26 05:57:31;;;;;;;;;;;3.50;73.20;;;;;;4995702;28;87896;-45
2023/11/26 05:59:57;;;;;;;;;;;3.40;73.30;;;;;;5003330;28;87811;-45
2023/11/26 06:02:22;;;;;;;;;;;3.50;73.20;;;;;;4997389;28;87161;-45
2023/11/26 06:04:48;;;;;;;;;;;3.50;73.20;;;;;;4999520;28;86999;-44
2023/11/26 06:07:14;;;;;;;;;;;3.50;73.20;;;;;;4997379;28;88640;-45
2023/11/26 06:09:39;;;;;;;;;;;3.50;73.30;;;;;;4998396;28;86978;-44
2023/11/26 06:12:05;;;;;;;;;;;3.40;73.30;;;;;;5000983;28;86902;-44
2023/11/26 06:14:31;;;;;;;;;;;3.50;73.30;;;;;;4998346;28;86277;-43
2023/11/26 06:16:56;;;;;;;;;;;3.40;73.50;;;;;;5004138;28;86797;-44
2023/11/26 06:19:22;;;;;;;;;;;3.40;73.50;;;;;;4996919;28;87577;-45
2023/11/26 06:21:47;;;;;;;;;;;3.40;73.30;;;;;;4995240;28;88608;-44
2023/11/26 06:24:13;;;;;;;;;;;3.40;73.40;;;;;;4999652;28;87472;-44
2023/11/26 06:26:40;;;;;;;;;;;3.40;73.50;;;;;;4999370;28;88429;-44
2023/11/26 06:29:06;;;;;;;;;;;3.40;73.60;;;;;;5002310;28;87057;-44
2023/11/26 06:31:32;;;;;;;;;;;3.40;73.50;;;;;;5000526;28;87216;-43
2023/11/26 06:33:58;;;;;;;;;;;3.30;73.40;;;;;;4997949;28;88568;-44
2023/11/26 06:36:24;;;;;;;;;;;3.40;73.50;;;;;;4997153;28;87999;-44
2023/11/26 06:38:50;;;;;;;;;;;3.30;73.70;;;;;;5001787;28;86843;-44
2023/11/26 06:41:20;;;;;;;;;;;3.30;73.50;;;;;;4999750;28;86985;-44
2023/11/26 06:43:46;;;;;;;;;;;3.40;73.50;;;;;;4996853;28;88165;-44
2023/11/26 06:46:18;;;;;;;;;;;3.30;73.40;;;;;;4998827;28;88397;-44
2023/11/26 06:48:44;;;;;;;;;;;3.30;73.50;;;;;;5001030;28;87076;-45
2023/11/26 06:51:10;;;;;;;;;;;3.30;73.30;;;;;;4991510;28;86897;-44
2023/11/26 06:53:35;;;;;;;;;;;3.40;73.40;;;;;;4997749;28;88219;-45
2023/11/26 06:56:01;;;;;;;;;;;3.30;73.30;;;;;;5000723;28;86993;-45
2023/11/26 06:58:26;;;;;;;;;;;3.30;73.40;;;;;;4998650;28;87300;-44
2023/11/26 07:00:52;;;;;;;;;;;3.30;73.40;;;;;;4995103;28;87017;-44
2023/11/26 07:03:17;;;;;;;;;;;3.30;73.50;;;;;;4999794;28;87922;-44
2023/11/26 07:05:43;;;;;;;;;;;3.30;73.20;;;;;;4997813;28;87816;-44
2023/11/26 07:08:08;;;;;;;;;;;3.30;73.10;;;;;;4997056;28;87076;-44
2023/11/26 07:10:35;;;;;;;;;;;3.30;73.10;;;;;;4997334;28;87944;-43
2023/11/26 07:13:00;;;;;;;;;;;3.30;73.10;;;;;;4994797;28;88550;-43
2023/11/26 07:15:26;;;;;;;;;;;3.30;73.10;;;;;;5000422;28;89209;-44
2023/11/26 07:17:52;;;;;;;;;;;3.30;73.10;;;;;;4997857;28;87000;-44
2023/11/26 07:20:17;;;;;;;;;;;3.30;73.10;;;;;;4999222;28;87410;-44
2023/11/26 07:22:43;;;;;;;;;;;3.30;73.20;;;;;;4996061;28;87227;-44
2023/11/26 07:25:08;;;;;;;;;;;3.30;73.10;;;;;;4996914;28;88617;-44
2023/11/26 07:27:34;;;;;;;;;;;3.20;73.20;;;;;;4991928;28;86362;-44
2023/11/26 07:30:00;;;;;;;;;;;3.20;73.00;;;;;;4997851;28;88038;-44
2023/11/26 07:32:26;;;;;;;;;;;3.20;73.10;;;;;;5001677;28;88840;-45
2023/11/26 07:34:52;;;;;;;;;;;3.30;73.10;;;;;;4998781;28;89293;-45
2023/11/26 07:37:18;;;;;;;;;;;3.30;73.00;;;;;;5002066;28;87767;-45
2023/11/26 07:39:43;;;;;;;;;;;3.30;72.90;;;;;;4997545;28;87082;-44
2023/11/26 07:42:09;;;;;;;;;;;3.30;72.90;;;;;;4992058;28;87057;-43
2023/11/26 07:44:35;;;;;;;;;;;3.30;72.90;;;;;;4990066;28;87969;-43
2023/11/26 07:47:03;;;;;;;;;;;3.30;72.90;;;;;;4993166;28;87055;-45
2023/11/26 07:49:31;;;;;;;;;;;3.30;72.90;;;;;;4998153;28;87199;-44
2023/11/26 07:51:56;;;;;;;;;;;3.20;72.90;;;;;;5000362;28;87957;-45
2023/11/26 07:54:22;;;;;;;;;;;3.20;73.00;;;;;;5001636;28;87128;-46
2023/11/26 07:56:47;;;;;;;;;;;3.20;73.10;;;;;;4994069;28;87112;-45
2023/11/26 07:59:13;;;;;;;;;;;3.20;73.20;;;;;;4994393;28;88596;-44
2023/11/26 08:01:39;;;;;;;;;;;3.20;73.10;;;;;;4996321;28;88516;-45
2023/11/26 08:04:05;;;;;;;;;;;3.20;73.10;;;;;;4999230;28;87739;-44
2023/11/26 08:06:31;;;;;;;;;;;3.20;73.00;;;;;;4994269;28;87667;-44
2023/11/26 08:08:57;;;;;;;;;;;3.20;73.00;;;;;;5002451;28;87971;-44
2023/11/26 08:11:23;;;;;;;;;;;3.20;73.00;;;;;;4997197;28;87336;-44
2023/11/26 08:13:48;;;;;;;;;;;3.20;73.00;;;;;;4999862;28;87013;-44
2023/11/26 08:16:17;;;;;;;;;;;3.20;73.10;;;;;;4993678;28;87952;-44
2023/11/26 08:18:43;;;;;;;;;;;3.20;73.20;;;;;;4999832;28;88772;-44
2023/11/26 08:21:08;;;;;;;;;;;3.20;73.10;;;;;;5000092;28;86948;-43
2023/11/26 08:23:40;;;;;;;;;;;3.20;73.10;;;;;;4998268;28;88583;-44
2023/11/26 08:26:09;;;;;;;;;;;3.20;73.10;;;;;;4995483;28;88625;-44
2023/11/26 08:28:35;;;;;;;;;;;3.20;73.20;;;;;;4993907;28;87998;-44
2023/11/26 08:31:01;;;;;;;;;;;3.10;73.00;;;;;;4996948;28;88399;-45
2023/11/26 08:33:33;;;;;;;;;;;3.10;73.20;;;;;;4999997;28;87084;-44
2023/11/26 08:36:02;;;;;;;;;;;3.20;73.10;;;;;;4996712;28;88000;-45
2023/11/26 08:38:30;;;;;;;;;;;3.20;73.10;;;;;;4998871;28;88561;-45
2023/11/26 08:40:55;;;;;;;;;;;3.20;73.20;;;;;;5001803;28;86306;-46
2023/11/26 08:43:22;;;;;;;;;;;3.10;72.90;;;;;;5001010;28;87553;-45
2023/11/26 08:45:48;;;;;;;;;;;3.20;73.00;;;;;;4998192;28;87114;-43
2023/11/26 08:48:13;;;;;;;;;;;3.20;73.20;;;;;;4997410;28;88942;-44
2023/11/26 08:50:39;;;;;;;;;;;3.10;73.00;;;;;;4993513;28;86895;-45
2023/11/26 08:53:07;;;;;;;;;;;3.10;73.00;;;;;;4999886;28;86977;-44
2023/11/26 08:55:33;;;;;;;;;;;3.20;72.90;;;;;;4993472;28;88044;-44
2023/11/26 08:57:59;;;;;;;;;;;3.20;72.80;;;;;;4992973;28;87506;-45
2023/11/26 09:00:25;;;;;;;;;;;3.20;72.90;;;;;;4997787;28;86970;-44
2023/11/26 09:02:50;;;;;;;;;;;3.20;72.80;;;;;;4996503;28;88032;-45
2023/11/26 09:05:16;;;;;;;;;;;3.20;72.80;;;;;;4996736;28;87244;-44
2023/11/26 09:07:44;;;;;;;;;;;3.20;72.80;;;;;;4993398;28;86809;-45
2023/11/26 09:10:10;;;;;;;;;;;3.20;72.60;;;;;;5000845;28;88347;-45
2023/11/26 09:12:37;;;;;;;;;;;3.20;72.80;;;;;;4997067;28;88559;-45
2023/11/26 09:15:04;;;;;;;;;;;3.20;72.80;;;;;;5003548;28;87869;-45
2023/11/26 09:17:30;;;;;;;;;;;3.10;72.90;;;;;;5001511;28;88384;-44
2023/11/26 09:19:56;;;;;;;;;;;3.10;72.80;;;;;;4996655;28;87025;-43
2023/11/26 09:22:21;;;;;;;;;;;3.10;73.00;;;;;;4994315;28;87706;-44
2023/11/26 09:24:48;;;;;;;;;;;3.20;72.70;;;;;;5001673;28;87639;-43
2023/11/26 09:27:13;;;;;;;;;;;3.10;72.90;;;;;;5001529;28;86989;-43
2023/11/26 09:29:39;;;;;;;;;;;3.10;72.70;;;;;;4999823;28;87394;-44
2023/11/26 09:32:05;;;;;;;;;;;3.10;72.80;;;;;;5000520;28;87885;-43
2023/11/26 09:34:31;;;;;;;;;;;3.10;73.10;;;;;;5006082;28;87032;-44
2023/11/26 09:36:58;;;;;;;;;;;3.10;72.70;;;;;;5002069;28;88679;-43
2023/11/26 09:39:24;;;;;;;;;;;3.10;72.90;;;;;;4999250;28;87256;-45
2023/11/26 09:41:52;;;;;;;;;;;3.10;72.90;;;;;;4997075;28;86913;-44
2023/11/26 09:44:17;;;;;;;;;;;3.10;72.90;;;;;;5002800;28;87438;-45
2023/11/26 09:46:45;;;;;;;;;;;3.10;72.90;;;;;;5004157;28;87006;-43
2023/11/26 09:49:11;;;;;;;;;;;3.10;72.70;;;;;;4994967;28;88593;-45
2023/11/26 09:51:37;;;;;;;;;;;3.10;72.80;;;;;;4998919;28;87107;-44
2023/11/26 09:54:04;;;;;;;;;;;3.10;73.00;;;;;;5004116;28;87824;-45
2023/11/26 09:56:31;;;;;;;;;;;3.10;73.10;;;;;;5000985;28;88383;-43
2023/11/26 09:58:57;;;;;;;;;;;3.00;72.90;;;;;;4996487;28;87086;-44
2023/11/26 10:01:22;;;;;;;;;;;3.10;73.20;;;;;;4994728;28;88148;-46
2023/11/26 10:03:58;;;;;;;;;;;3.00;73.10;;;;;;4998671;28;87482;-46
2023/11/26 10:06:24;;;;;;;;;;;3.00;73.10;;;;;;4999581;28;87118;-44
2023/11/26 10:08:50;;;;;;;;;;;3.00;73.00;;;;;;4999254;28;88947;-44
2023/11/26 10:11:19;;;;;;;;;;;3.00;73.00;;;;;;4997053;28;88293;-45
2023/11/26 10:13:44;;;;;;;;;;;3.00;73.00;;;;;;4996983;28;86859;-43
2023/11/26 10:16:10;;;;;;;;;;;3.00;73.20;;;;;;5001351;28;87248;-44
2023/11/26 10:18:39;;;;;;;;;;;2.90;73.20;;;;;;4999064;28;86392;-44
2023/11/26 10:21:05;;;;;;;;;;;2.90;73.30;;;;;;4998862;28;87074;-44
2023/11/26 10:23:36;;;;;;;;;;;3.00;73.30;;;;;;5000772;28;88612;-44
2023/11/26 10:26:04;;;;;;;;;;;2.90;73.40;;;;;;4995063;28;87890;-44
2023/11/26 10:28:30;;;;;;;;;;;3.00;73.40;;;;;;4992971;28;88873;-44
2023/11/26 10:31:04;;;;;;;;;;;2.90;73.30;;;;;;5000321;28;88503;-43
2023/11/26 10:33:30;;;;;;;;;;;2.90;73.40;;;;;;4999149;28;89604;-44
2023/11/26 10:35:56;;;;;;;;;;;2.90;73.50;;;;;;4991866;28;88482;-44
2023/11/26 10:38:25;;;;;;;;;;;2.90;73.50;;;;;;5001657;28;87015;-44
2023/11/26 10:40:54;;;;;;;;;;;2.90;73.70;;;;;;5000313;28;87976;-44
2023/11/26 10:43:22;;;;;;;;;;;2.90;73.50;;;;;;5000989;28;86552;-45
2023/11/26 10:45:48;;;;;;;;;;;2.90;73.30;;;;;;4999538;28;87180;-44
2023/11/26 10:48:14;;;;;;;;;;;2.90;73.40;;;;;;4996670;28;87784;-44
2023/11/26 10:50:42;;;;;;;;;;;2.90;73.50;;;;;;4995455;28;89544;-44
2023/11/26 10:53:26;;;;;;;;;;;2.90;73.30;;;;;;5007175;28;88755;-44
2023/11/26 10:55:55;;;;;;;;;;;2.90;73.30;;;;;;4996427;28;88430;-44
2023/11/26 10:58:28;;;;;;;;;;;2.90;73.50;;;;;;4996400;28;87038;-43
2023/11/26 11:00:57;;;;;;;;;;;2.90;73.50;;;;;;5003413;28;87839;-43
2023/11/26 11:03:24;;;;;;;;;;;2.90;74.20;;;;;;4995275;28;88506;-43
2023/11/26 11:05:50;;;;;;;;;;;2.90;73.50;;;;;;4994729;28;86990;-43
2023/11/26 11:08:16;;;;;;;;;;;2.90;73.60;;;;;;5000745;28;86263;-44
2023/11/26 11:10:50;;;;;;;;;;;2.90;73.70;;;;;;4997997;28;88512;-44
2023/11/26 11:13:16;;;;;;;;;;;2.90;73.50;;;;;;4998170;28;86932;-43
2023/11/26 11:15:43;;;;;;;;;;;2.90;73.80;;;;;;4995575;28;88028;-43
2023/11/26 11:18:35;;;;;;;;;;;2.90;73.60;;;;;;5000618;28;86905;-43
2023/11/26 11:21:05;;;;;;;;;;;2.90;73.40;;;;;;4995456;28;87887;-43
2023/11/26 11:23:31;;;;;;;;;;;2.80;73.40;;;;;;4995829;28;88617;-42
2023/11/26 11:25:57;;;;;;;;;;;2.90;73.70;;;;;;4991867;28;87131;-43
2023/11/26 11:28:42;;;;;;;;;;;2.90;73.60;;;;;;4999226;28;88100;-42
2023/11/26 11:31:09;;;;;;;;;;;2.90;73.80;;;;;;4998259;28;87096;-42
2023/11/26 11:33:34;;;;;;;;;;;2.90;73.50;;;;;;5000691;28;86322;-43
2023/11/26 11:36:03;;;;;;;;;;;2.90;73.50;;;;;;4998508;28;86991;-43
2023/11/26 11:38:30;;;;;;;;;;;2.90;73.70;;;;;;4995382;28;88607;-42
2023/11/26 11:41:02;;;;;;;;;;;2.90;73.50;;;;;;4994021;28;87975;-44
2023/11/26 11:43:28;;;;;;;;;;;2.80;73.60;;;;;;5000516;28;88655;-44
2023/11/26 11:45:54;;;;;;;;;;;2.80;73.60;;;;;;5002727;28;87094;-42
2023/11/26 11:48:39;;;;;;;;;;;2.80;73.70;;;;;;4999932;28;87791;-43
2023/11/26 11:51:24;;;;;;;;;;;2.80;73.70;;;;;;4994854;28;87780;-43
2023/11/26 11:53:50;;;;;;;;;;;2.80;73.70;;;;;;4998227;28;86988;-43
2023/11/26 11:56:18;;;;;;;;;;;2.80;73.50;;;;;;4996139;28;87741;-42
2023/11/26 11:58:44;;;;;;;;;;;2.80;73.70;;;;;;5001250;28;87151;-43
2023/11/26 12:01:11;;;;;;;;;;;2.80;73.80;;;;;;4997367;28;87006;-43
2023/11/26 12:03:38;;;;;;;;;;;2.80;73.80;;;;;;4994279;28;88600;-43
2023/11/26 12:06:12;;;;;;;;;;;2.80;73.90;;;;;;4998644;28;89419;-44
2023/11/26 12:08:38;;;;;;;;;;;2.80;74.00;;;;;;4998776;28;89125;-44
2023/11/26 12:11:09;;;;;;;;;;;2.80;73.90;;;;;;4992838;28;88475;-42
2023/11/26 12:13:42;;;;;;;;;;;2.80;73.60;;;;;;4996652;28;87088;-44
2023/11/26 12:16:08;;;;;;;;;;;2.80;73.50;;;;;;5001400;28;89032;-44
2023/11/26 12:18:34;;;;;;;;;;;2.80;73.60;;;;;;4992826;28;87515;-43
2023/11/26 12:21:00;;;;;;;;;;;2.80;73.70;;;;;;4998034;28;86966;-43
2023/11/26 12:23:29;;;;;;;;;;;2.80;73.80;;;;;;4997892;28;87968;-43
2023/11/26 12:25:56;;;;;;;;;;;2.80;73.80;;;;;;5001253;28;87020;-42
2023/11/26 12:28:21;;;;;;;;;;;2.80;74.00;;;;;;4999371;28;89031;-42
2023/11/26 12:30:54;;;;;;;;;;;2.80;73.70;;;;;;4997088;28;88524;-43
2023/11/26 12:33:20;;;;;;;;;;;2.80;73.70;;;;;;5001643;28;86944;-43
2023/11/26 12:35:46;;;;;;;;;;;2.80;73.80;;;;;;4991784;28;87970;-42
2023/11/26 12:38:12;;;;;;;;;;;2.80;73.60;;;;;;4996602;28;88505;-43
2023/11/26 12:40:38;;;;;;;;;;;2.70;73.60;;;;;;4996867;28;88471;-42
2023/11/26 12:43:04;;;;;;;;;;;2.80;73.60;;;;;;4992506;28;87895;-43
2023/11/26 12:45:29;;;;;;;;;;;2.70;73.70;;;;;;4992066;28;87045;-43
2023/11/26 12:47:56;;;;;;;;;;;2.70;73.80;;;;;;4992900;28;86726;-43
2023/11/26 12:50:24;;;;;;;;;;;2.70;73.90;;;;;;4999961;28;88450;-43
2023/11/26 12:52:51;;;;;;;;;;;2.70;73.90;;;;;;5001154;28;87027;-43
2023/11/26 12:55:17;;;;;;;;;;;2.70;73.80;;;;;;4998487;28;87986;-42
2023/11/26 12:57:43;;;;;;;;;;;2.60;73.90;;;;;;4997132;28;88561;-43
2023/11/26 13:00:10;;;;;;;;;;;2.60;74.10;;;;;;5001442;28;86884;-43
2023/11/26 13:02:39;;;;;;;;;;;2.60;73.90;;;;;;5005115;28;87810;-43
2023/11/26 13:05:26;;;;;;;;;;;2.60;74.10;;;;;;5001690;28;88461;-43
2023/11/26 13:07:52;;;;;;;;;;;2.60;74.10;;;;;;5001476;28;87260;-42
2023/11/26 13:10:18;;;;;;;;;;;2.60;74.20;;;;;;4998223;28;88079;-43
2023/11/26 13:12:44;;;;;;;;;;;2.60;74.20;;;;;;5001494;28;86152;-43
2023/11/26 13:15:13;;;;;;;;;;;2.60;74.10;;;;;;5003786;28;87014;-42
2023/11/26 13:17:39;;;;;;;;;;;2.60;74.10;;;;;;4996334;28;89114;-42
2023/11/26 13:20:11;;;;;;;;;;;2.60;74.20;;;;;;4994920;28;88019;-42
2023/11/26 13:22:37;;;;;;;;;;;2.60;74.20;;;;;;4999570;28;88927;-43
2023/11/26 13:25:04;;;;;;;;;;;2.60;74.20;;;;;;5001558;28;88640;-42
2023/11/26 13:27:29;;;;;;;;;;;2.60;74.30;;;;;;5002242;28;89003;-44
2023/11/26 13:29:55;;;;;;;;;;;2.60;74.60;;;;;;5001129;28;88953;-44
2023/11/26 13:32:21;;;;;;;;;;;2.60;74.20;;;;;;4997342;28;87229;-43
2023/11/26 13:34:46;;;;;;;;;;;2.60;74.30;;;;;;4998548;28;87016;-44
2023/11/26 13:37:16;;;;;;;;;;;2.60;75.60;;;;;;4997614;28;86649;-49
2023/11/26 13:39:43;;;;;;;;;;;2.60;71.00;;;;;;4995378;28;87273;-44
2023/11/26 13:42:09;;;;;;;;;;;2.60;72.90;;;;;;5004288;28;87109;-46
2023/11/26 13:44:35;;;;;;;;;;;2.60;71.40;;;;;;4997913;28;88564;-49
2023/11/26 13:47:03;;;;;;;;;;;2.50;71.80;;;;;;5000619;28;87050;-47
2023/11/26 13:49:29;;;;;;;;;;;2.50;70.40;;;;;;5001539;28;86976;-47
2023/11/26 13:51:55;;;;;;;;;;;2.40;69.60;;;;;;5000165;28;86968;-49
2023/11/26 13:54:20;;;;;;;;;;;2.40;71.10;;;;;;5002394;28;87831;-44
2023/11/26 13:56:46;;;;;;;;;;;2.40;70.00;;;;;;5004236;28;87535;-48
2023/11/26 13:59:12;;;;;;;;;;;2.40;68.80;;;;;;4998778;28;87060;-47
2023/11/26 14:01:37;;;;;;;;;;;2.30;68.30;;;;;;5002915;28;86865;-52
2023/11/26 14:04:04;;;;;;;;;;;2.20;69.80;;;;;;5000198;28;87415;-46
2023/11/26 14:06:30;;;;;;;;;;;2.30;69.50;;;;;;5000065;28;87059;-41
2023/11/26 14:08:56;;;;;;;;;;;2.20;68.70;;;;;;4998430;28;87953;-43
2023/11/26 14:11:22;;;;;;;;;;;2.30;70.10;;;;;;4996047;28;87033;-42
2023/11/26 14:13:47;;;;;;;;;;;2.30;70.50;;;;;;4999933;28;86864;-43
2023/11/26 14:16:15;;;;;;;;;;;2.30;71.00;;;;;;4995821;28;88374;-42
2023/11/26 14:18:40;;;;;;;;;;;2.30;71.60;;;;;;4999114;28;87051;-42
2023/11/26 14:21:06;;;;;;;;;;;2.30;71.90;;;;;;4997104;28;88163;-43
2023/11/26 14:23:32;;;;;;;;;;;2.30;72.20;;;;;;4994417;28;88248;-41
2023/11/26 14:25:57;;;;;;;;;;;2.30;72.30;;;;;;4998435;28;86112;-42
2023/11/26 14:28:23;;;;;;;;;;;2.30;72.50;;;;;;5001646;28;87013;-43
2023/11/26 14:30:49;;;;;;;;;;;2.30;72.80;;;;;;5001608;28;88525;-43